This is the latest recevied weather packets stored in our database for station/object KD8AZC-13. If no packets are shown the sender has not sent any weather packets the latest 10 day(s).
| Time | Temp. | Humidity | Pressure | Rain* | Wind** | Luminosity | Snow |
|---|---|---|---|---|---|---|---|
| 1777815042 | 8.89° C | 57% | 1018.3 hPa | 0 mm | - | - | - |
| 1777813234 | 7.78° C | 60% | 1018.2 hPa | 0 mm | - | - | - |
| 1777794334 | 3.89° C | 77% | 1015.8 hPa | 0 mm | - | - | - |
| 1777788917 | 4.44° C | 72% | 1015.2 hPa | 0 mm | - | - | - |
| 1777788027 | 4.44° C | 72% | 1015.3 hPa | 0 mm | - | - | - |
| 1777782602 | 5° C | 69% | 1015.4 hPa | 0 mm | - | - | - |
| 1777780854 | 5.56° C | 68% | 1015.4 hPa | 0 mm | - | - | - |
| 1777779970 | 5.56° C | 67% | 1015.4 hPa | 0 mm | - | - | - |
| 1777776351 | 6.67° C | 63% | 1015.3 hPa | 0 mm | - | - | - |
| 1777770952 | 8.33° C | 56% | 1014.6 hPa | 0 mm | - | - | - |
| 1777770074 | 8.89° C | 54% | 1014.4 hPa | 0 mm | - | - | - |
| 1777765546 | 10° C | 48% | 1013.2 hPa | 0 mm | - | - | - |
| 1777760143 | 11.11° C | 45% | 1012.4 hPa | 0 mm | - | - | - |
| 1777752033 | 12.22° C | 40% | 1012 hPa | 0 mm | - | - | - |
| 1777743919 | 12.78° C | 44% | 1013.5 hPa | 0 mm | - | - | - |
| 1777743023 | 11.67° C | 46% | 1013.6 hPa | 0 mm | - | - | - |
| 1777742118 | 11.67° C | 44% | 1013.5 hPa | 0 mm | - | - | - |
| 1777738512 | 11.67° C | 47% | 1014 hPa | 0 mm | - | - | - |
| 1777735827 | 11.67° C | 46% | 1014.3 hPa | 0 mm | - | - | - |
| 1777734907 | 11.11° C | 53% | 1014.2 hPa | 0 mm | - | - | - |
| 1777733103 | 10° C | 55% | 1014.2 hPa | 0 mm | - | - | - |
| 1777728656 | 8.89° C | 65% | 1014.3 hPa | 0 mm | - | - | - |
| 1777725052 | 7.22° C | 71% | 1014.4 hPa | 0 mm | - | - | - |
| 1777721451 | 5.56° C | 76% | 1014.6 hPa | 0 mm | - | - | - |
| 1777717845 | 5° C | 75% | 1014.9 hPa | 0 mm | - | - | - |
* Rain latest hour (hover to see other rain measurements)
** Current wind speed in m/s (hover to see current wind gust speed)